sensor_id;sensor_type;location;lat;lon;timestamp;temperature;humidity
22698;DHT22;11516;51.612;7.510;2022-10-20T00:00:56;8.40;99.90
22698;DHT22;11516;51.612;7.510;2022-10-20T00:03:22;8.40;99.90
22698;DHT22;11516;51.612;7.510;2022-10-20T00:05:48;8.40;99.90
22698;DHT22;11516;51.612;7.510;2022-10-20T00:08:14;8.20;99.90
22698;DHT22;11516;51.612;7.510;2022-10-20T00:10:40;8.20;99.90
22698;DHT22;11516;51.612;7.510;2022-10-20T00:13:05;8.20;99.90
22698;DHT22;11516;51.612;7.510;2022-10-20T00:15:31;8.20;99.90
22698;DHT22;11516;51.612;7.510;2022-10-20T00:17:57;8.20;99.90
22698;DHT22;11516;51.612;7.510;2022-10-20T00:20:22;8.20;99.90
22698;DHT22;11516;51.612;7.510;2022-10-20T00:22:48;8.20;99.90
22698;DHT22;11516;51.612;7.510;2022-10-20T00:25:13;8.30;99.90
22698;DHT22;11516;51.612;7.510;2022-10-20T00:27:39;8.30;99.90
22698;DHT22;11516;51.612;7.510;2022-10-20T00:30:05;8.30;99.90
22698;DHT22;11516;51.612;7.510;2022-10-20T00:32:30;8.30;99.90
22698;DHT22;11516;51.612;7.510;2022-10-20T00:34:56;8.40;99.90
22698;DHT22;11516;51.612;7.510;2022-10-20T00:37:21;8.40;99.90
22698;DHT22;11516;51.612;7.510;2022-10-20T00:39:47;8.30;99.90
22698;DHT22;11516;51.612;7.510;2022-10-20T00:42:14;8.30;99.90
22698;DHT22;11516;51.612;7.510;2022-10-20T00:44:47;8.30;99.90
22698;DHT22;11516;51.612;7.510;2022-10-20T00:47:38;8.30;99.90
22698;DHT22;11516;51.612;7.510;2022-10-20T00:50:13;8.20;99.90
22698;DHT22;11516;51.612;7.510;2022-10-20T00:52:40;8.20;99.90
22698;DHT22;11516;51.612;7.510;2022-10-20T00:55:07;8.20;99.90
22698;DHT22;11516;51.612;7.510;2022-10-20T00:57:34;8.20;99.90
22698;DHT22;11516;51.612;7.510;2022-10-20T01:00:00;8.20;99.90
22698;DHT22;11516;51.612;7.510;2022-10-20T01:02:26;8.20;99.90
22698;DHT22;11516;51.612;7.510;2022-10-20T01:04:52;8.20;99.90
22698;DHT22;11516;51.612;7.510;2022-10-20T01:07:17;8.20;99.90
22698;DHT22;11516;51.612;7.510;2022-10-20T01:09:43;8.20;99.90
22698;DHT22;11516;51.612;7.510;2022-10-20T01:18:24;8.10;99.90
22698;DHT22;11516;51.612;7.510;2022-10-20T01:23:47;8.10;99.90
22698;DHT22;11516;51.612;7.510;2022-10-20T01:29:00;8.00;99.90
22698;DHT22;11516;51.612;7.510;2022-10-20T01:31:41;8.00;99.90
22698;DHT22;11516;51.612;7.510;2022-10-20T01:34:14;8.00;99.90
22698;DHT22;11516;51.612;7.510;2022-10-20T01:37:01;8.00;99.90
22698;DHT22;11516;51.612;7.510;2022-10-20T01:39:49;8.10;99.90
22698;DHT22;11516;51.612;7.510;2022-10-20T01:42:24;8.10;99.90
22698;DHT22;11516;51.612;7.510;2022-10-20T01:44:58;8.10;99.90
22698;DHT22;11516;51.612;7.510;2022-10-20T01:47:26;8.00;99.90
22698;DHT22;11516;51.612;7.510;2022-10-20T01:49:53;8.00;99.90
22698;DHT22;11516;51.612;7.510;2022-10-20T01:52:21;7.90;99.90
22698;DHT22;11516;51.612;7.510;2022-10-20T01:54:47;7.80;99.90
22698;DHT22;11516;51.612;7.510;2022-10-20T01:57:38;7.80;99.90
22698;DHT22;11516;51.612;7.510;2022-10-20T02:00:13;7.80;99.90
22698;DHT22;11516;51.612;7.510;2022-10-20T02:07:45;7.90;99.90
22698;DHT22;11516;51.612;7.510;2022-10-20T02:12:40;7.90;99.90
22698;DHT22;11516;51.612;7.510;2022-10-20T02:15:10;7.90;99.90
22698;DHT22;11516;51.612;7.510;2022-10-20T02:17:39;7.90;99.90
22698;DHT22;11516;51.612;7.510;2022-10-20T02:20:07;8.00;99.90
22698;DHT22;11516;51.612;7.510;2022-10-20T02:22:33;7.90;99.90
22698;DHT22;11516;51.612;7.510;2022-10-20T02:24:59;7.90;99.90
22698;DHT22;11516;51.612;7.510;2022-10-20T02:27:36;7.90;99.90
22698;DHT22;11516;51.612;7.510;2022-10-20T02:30:09;7.90;99.90
22698;DHT22;11516;51.612;7.510;2022-10-20T02:32:36;7.90;99.90
22698;DHT22;11516;51.612;7.510;2022-10-20T02:35:12;7.90;99.90
22698;DHT22;11516;51.612;7.510;2022-10-20T02:37:39;7.90;99.90
22698;DHT22;11516;51.612;7.510;2022-10-20T02:40:05;8.00;99.90
22698;DHT22;11516;51.612;7.510;2022-10-20T02:42:31;8.00;99.90
22698;DHT22;11516;51.612;7.510;2022-10-20T02:44:56;8.00;99.90
22698;DHT22;11516;51.612;7.510;2022-10-20T02:47:22;8.00;99.90
22698;DHT22;11516;51.612;7.510;2022-10-20T02:49:47;8.00;99.90
22698;DHT22;11516;51.612;7.510;2022-10-20T02:52:13;8.00;99.90
22698;DHT22;11516;51.612;7.510;2022-10-20T02:54:39;8.00;99.90
22698;DHT22;11516;51.612;7.510;2022-10-20T02:57:05;8.00;99.90
22698;DHT22;11516;51.612;7.510;2022-10-20T02:59:31;8.00;99.90
22698;DHT22;11516;51.612;7.510;2022-10-20T03:01:56;8.10;99.90
22698;DHT22;11516;51.612;7.510;2022-10-20T03:04:22;8.10;99.90
22698;DHT22;11516;51.612;7.510;2022-10-20T03:06:47;8.10;99.90
22698;DHT22;11516;51.612;7.510;2022-10-20T03:09:13;8.10;99.90
22698;DHT22;11516;51.612;7.510;2022-10-20T03:11:38;8.00;99.90
22698;DHT22;11516;51.612;7.510;2022-10-20T03:14:04;8.00;99.90
22698;DHT22;11516;51.612;7.510;2022-10-20T03:16:29;8.00;99.90
22698;DHT22;11516;51.612;7.510;2022-10-20T03:18:55;8.00;99.90
22698;DHT22;11516;51.612;7.510;2022-10-20T03:21:21;7.90;99.90
22698;DHT22;11516;51.612;7.510;2022-10-20T03:23:46;7.90;99.90
22698;DHT22;11516;51.612;7.510;2022-10-20T03:26:12;7.90;99.90
22698;DHT22;11516;51.612;7.510;2022-10-20T03:28:38;8.00;99.90
22698;DHT22;11516;51.612;7.510;2022-10-20T03:31:04;8.00;99.90
22698;DHT22;11516;51.612;7.510;2022-10-20T03:33:30;7.90;99.90
22698;DHT22;11516;51.612;7.510;2022-10-20T03:35:55;8.00;99.90
22698;DHT22;11516;51.612;7.510;2022-10-20T03:38:21;8.00;99.90
22698;DHT22;11516;51.612;7.510;2022-10-20T03:40:47;7.90;99.90
22698;DHT22;11516;51.612;7.510;2022-10-20T03:43:12;8.10;99.90
22698;DHT22;11516;51.612;7.510;2022-10-20T03:45:42;8.10;99.90
22698;DHT22;11516;51.612;7.510;2022-10-20T03:48:08;8.10;99.90
22698;DHT22;11516;51.612;7.510;2022-10-20T03:50:37;8.00;99.90
22698;DHT22;11516;51.612;7.510;2022-10-20T03:53:03;8.00;99.90
22698;DHT22;11516;51.612;7.510;2022-10-20T03:55:29;8.00;99.90
22698;DHT22;11516;51.612;7.510;2022-10-20T03:57:54;8.00;99.90
22698;DHT22;11516;51.612;7.510;2022-10-20T04:00:20;8.10;99.90
22698;DHT22;11516;51.612;7.510;2022-10-20T04:02:46;8.00;99.90
22698;DHT22;11516;51.612;7.510;2022-10-20T04:05:18;8.10;99.90
22698;DHT22;11516;51.612;7.510;2022-10-20T04:07:44;8.10;99.90
22698;DHT22;11516;51.612;7.510;2022-10-20T04:10:10;8.10;99.90
22698;DHT22;11516;51.612;7.510;2022-10-20T04:12:36;8.10;99.90
22698;DHT22;11516;51.612;7.510;2022-10-20T04:15:03;8.10;99.90
22698;DHT22;11516;51.612;7.510;2022-10-20T04:17:28;8.00;99.90
22698;DHT22;11516;51.612;7.510;2022-10-20T04:19:54;8.00;99.90
22698;DHT22;11516;51.612;7.510;2022-10-20T04:22:19;8.00;99.90
22698;DHT22;11516;51.612;7.510;2022-10-20T04:24:45;8.00;99.90
22698;DHT22;11516;51.612;7.510;2022-10-20T04:27:11;8.00;99.90
22698;DHT22;11516;51.612;7.510;2022-10-20T04:29:36;8.00;99.90
22698;DHT22;11516;51.612;7.510;2022-10-20T04:32:02;8.00;99.90
22698;DHT22;11516;51.612;7.510;2022-10-20T04:34:27;8.00;99.90
22698;DHT22;11516;51.612;7.510;2022-10-20T04:36:53;7.90;99.90
22698;DHT22;11516;51.612;7.510;2022-10-20T04:39:18;7.90;99.90
22698;DHT22;11516;51.612;7.510;2022-10-20T04:41:44;7.90;99.90
22698;DHT22;11516;51.612;7.510;2022-10-20T04:44:10;8.00;99.90
22698;DHT22;11516;51.612;7.510;2022-10-20T04:46:38;8.00;99.90
22698;DHT22;11516;51.612;7.510;2022-10-20T04:49:03;8.00;99.90
22698;DHT22;11516;51.612;7.510;2022-10-20T04:51:29;7.90;99.90
22698;DHT22;11516;51.612;7.510;2022-10-20T04:53:55;7.90;99.90
22698;DHT22;11516;51.612;7.510;2022-10-20T04:56:21;7.90;99.90
22698;DHT22;11516;51.612;7.510;2022-10-20T04:58:51;8.00;99.90
22698;DHT22;11516;51.612;7.510;2022-10-20T05:01:25;8.00;99.90
22698;DHT22;11516;51.612;7.510;2022-10-20T05:03:51;8.00;99.90
22698;DHT22;11516;51.612;7.510;2022-10-20T05:06:25;7.90;99.90
22698;DHT22;11516;51.612;7.510;2022-10-20T05:08:54;7.90;99.90
22698;DHT22;11516;51.612;7.510;2022-10-20T05:11:21;7.90;99.90
22698;DHT22;11516;51.612;7.510;2022-10-20T05:13:47;7.90;99.90
22698;DHT22;11516;51.612;7.510;2022-10-20T05:18:56;7.90;99.90
22698;DHT22;11516;51.612;7.510;2022-10-20T05:21:41;7.90;99.90
22698;DHT22;11516;51.612;7.510;2022-10-20T05:24:12;8.10;99.90
22698;DHT22;11516;51.612;7.510;2022-10-20T05:26:38;8.00;99.90
22698;DHT22;11516;51.612;7.510;2022-10-20T05:29:06;8.10;99.90
22698;DHT22;11516;51.612;7.510;2022-10-20T05:31:36;8.00;99.90
22698;DHT22;11516;51.612;7.510;2022-10-20T05:34:10;8.00;99.90
22698;DHT22;11516;51.612;7.510;2022-10-20T05:36:37;8.00;99.90
22698;DHT22;11516;51.612;7.510;2022-10-20T05:39:20;8.30;99.90
22698;DHT22;11516;51.612;7.510;2022-10-20T05:41:55;8.00;99.90
22698;DHT22;11516;51.612;7.510;2022-10-20T05:44:36;8.00;99.90
22698;DHT22;11516;51.612;7.510;2022-10-20T05:49:59;8.00;99.90
22698;DHT22;11516;51.612;7.510;2022-10-20T05:52:46;8.10;99.90
22698;DHT22;11516;51.612;7.510;2022-10-20T05:55:14;8.00;99.90
22698;DHT22;11516;51.612;7.510;2022-10-20T05:57:40;8.10;99.90
22698;DHT22;11516;51.612;7.510;2022-10-20T06:00:06;8.10;99.90
22698;DHT22;11516;51.612;7.510;2022-10-20T06:02:31;8.10;99.90
22698;DHT22;11516;51.612;7.510;2022-10-20T06:04:57;8.10;99.90
22698;DHT22;11516;51.612;7.510;2022-10-20T06:07:22;8.20;99.90
22698;DHT22;11516;51.612;7.510;2022-10-20T06:09:48;8.20;99.90
22698;DHT22;11516;51.612;7.510;2022-10-20T06:12:13;8.20;99.90
22698;DHT22;11516;51.612;7.510;2022-10-20T06:14:39;8.20;99.90
22698;DHT22;11516;51.612;7.510;2022-10-20T06:17:04;8.20;99.90
22698;DHT22;11516;51.612;7.510;2022-10-20T06:19:30;8.20;99.90
22698;DHT22;11516;51.612;7.510;2022-10-20T06:21:56;8.20;99.90
22698;DHT22;11516;51.612;7.510;2022-10-20T06:24:21;8.20;99.90
22698;DHT22;11516;51.612;7.510;2022-10-20T06:26:47;8.30;99.90
22698;DHT22;11516;51.612;7.510;2022-10-20T06:29:16;8.30;99.90
22698;DHT22;11516;51.612;7.510;2022-10-20T06:31:47;8.30;99.90
22698;DHT22;11516;51.612;7.510;2022-10-20T06:34:19;8.30;99.90
22698;DHT22;11516;51.612;7.510;2022-10-20T06:36:45;8.60;99.90
22698;DHT22;11516;51.612;7.510;2022-10-20T06:39:13;8.40;99.90
22698;DHT22;11516;51.612;7.510;2022-10-20T06:41:39;8.40;99.90
22698;DHT22;11516;51.612;7.510;2022-10-20T06:44:05;8.40;99.90
22698;DHT22;11516;51.612;7.510;2022-10-20T06:46:33;8.50;99.90
22698;DHT22;11516;51.612;7.510;2022-10-20T06:49:03;8.50;99.90
22698;DHT22;11516;51.612;7.510;2022-10-20T06:51:41;8.60;99.90
22698;DHT22;11516;51.612;7.510;2022-10-20T06:54:06;8.70;99.90
22698;DHT22;11516;51.612;7.510;2022-10-20T06:56:34;8.70;99.90
22698;DHT22;11516;51.612;7.510;2022-10-20T06:59:01;8.80;99.90
22698;DHT22;11516;51.612;7.510;2022-10-20T07:01:32;8.70;99.90
22698;DHT22;11516;51.612;7.510;2022-10-20T07:04:06;8.70;99.90
22698;DHT22;11516;51.612;7.510;2022-10-20T07:07:01;8.80;99.90
22698;DHT22;11516;51.612;7.510;2022-10-20T07:09:27;8.80;99.90
22698;DHT22;11516;51.612;7.510;2022-10-20T07:12:01;8.70;99.90
22698;DHT22;11516;51.612;7.510;2022-10-20T07:14:27;8.80;99.90
22698;DHT22;11516;51.612;7.510;2022-10-20T07:16:52;8.90;99.90
22698;DHT22;11516;51.612;7.510;2022-10-20T07:19:18;9.00;99.90
22698;DHT22;11516;51.612;7.510;2022-10-20T07:21:49;9.00;99.90
22698;DHT22;11516;51.612;7.510;2022-10-20T07:24:15;9.00;99.90
22698;DHT22;11516;51.612;7.510;2022-10-20T07:26:41;9.10;99.90
22698;DHT22;11516;51.612;7.510;2022-10-20T07:29:08;9.30;99.90
22698;DHT22;11516;51.612;7.510;2022-10-20T07:31:45;9.40;99.90
22698;DHT22;11516;51.612;7.510;2022-10-20T07:34:12;9.50;99.90
22698;DHT22;11516;51.612;7.510;2022-10-20T07:36:40;9.50;99.90
22698;DHT22;11516;51.612;7.510;2022-10-20T07:39:06;9.50;99.90
22698;DHT22;11516;51.612;7.510;2022-10-20T07:41:33;9.50;99.90
22698;DHT22;11516;51.612;7.510;2022-10-20T07:44:01;9.60;99.90
22698;DHT22;11516;51.612;7.510;2022-10-20T07:46:26;9.60;99.90
22698;DHT22;11516;51.612;7.510;2022-10-20T07:48:52;9.70;99.90
22698;DHT22;11516;51.612;7.510;2022-10-20T07:53:47;9.90;99.90
22698;DHT22;11516;51.612;7.510;2022-10-20T07:56:13;9.90;99.90
22698;DHT22;11516;51.612;7.510;2022-10-20T07:58:39;9.90;99.90
22698;DHT22;11516;51.612;7.510;2022-10-20T08:01:06;10.00;99.90
22698;DHT22;11516;51.612;7.510;2022-10-20T08:03:32;10.00;99.90
22698;DHT22;11516;51.612;7.510;2022-10-20T08:05:57;10.20;99.90
22698;DHT22;11516;51.612;7.510;2022-10-20T08:08:23;10.20;99.90
22698;DHT22;11516;51.612;7.510;2022-10-20T08:14:36;10.50;99.90
22698;DHT22;11516;51.612;7.510;2022-10-20T08:17:08;10.60;99.90
22698;DHT22;11516;51.612;7.510;2022-10-20T08:20:02;10.70;99.90
22698;DHT22;11516;51.612;7.510;2022-10-20T08:23:05;10.70;99.90
22698;DHT22;11516;51.612;7.510;2022-10-20T08:25:35;10.70;99.90
22698;DHT22;11516;51.612;7.510;2022-10-20T08:28:00;10.80;99.90
22698;DHT22;11516;51.612;7.510;2022-10-20T08:30:26;10.90;99.90
22698;DHT22;11516;51.612;7.510;2022-10-20T08:32:53;11.10;99.90
22698;DHT22;11516;51.612;7.510;2022-10-20T08:35:20;11.20;99.90
22698;DHT22;11516;51.612;7.510;2022-10-20T08:37:46;11.20;99.90
22698;DHT22;11516;51.612;7.510;2022-10-20T08:40:28;11.40;99.90
22698;DHT22;11516;51.612;7.510;2022-10-20T08:42:55;11.30;99.90
22698;DHT22;11516;51.612;7.510;2022-10-20T08:45:25;11.40;99.90
22698;DHT22;11516;51.612;7.510;2022-10-20T08:47:59;11.50;99.90
22698;DHT22;11516;51.612;7.510;2022-10-20T08:50:31;11.50;99.90
22698;DHT22;11516;51.612;7.510;2022-10-20T08:52:59;11.70;99.90
22698;DHT22;11516;51.612;7.510;2022-10-20T08:55:30;11.90;99.90
22698;DHT22;11516;51.612;7.510;2022-10-20T08:58:05;12.00;99.90
22698;DHT22;11516;51.612;7.510;2022-10-20T09:00:33;12.10;99.90
22698;DHT22;11516;51.612;7.510;2022-10-20T09:03:09;12.20;99.90
22698;DHT22;11516;51.612;7.510;2022-10-20T09:08:59;12.20;99.90
22698;DHT22;11516;51.612;7.510;2022-10-20T09:25:45;12.80;99.90
22698;DHT22;11516;51.612;7.510;2022-10-20T09:28:26;13.00;99.90
22698;DHT22;11516;51.612;7.510;2022-10-20T09:30:55;13.10;99.90
22698;DHT22;11516;51.612;7.510;2022-10-20T09:36:32;13.30;99.90
22698;DHT22;11516;51.612;7.510;2022-10-20T09:38:58;13.30;99.90
22698;DHT22;11516;51.612;7.510;2022-10-20T09:41:31;13.50;99.90
22698;DHT22;11516;51.612;7.510;2022-10-20T09:44:05;13.70;99.90
22698;DHT22;11516;51.612;7.510;2022-10-20T09:46:43;13.90;99.90
22698;DHT22;11516;51.612;7.510;2022-10-20T09:49:32;14.00;99.90
22698;DHT22;11516;51.612;7.510;2022-10-20T09:52:15;14.00;99.90
22698;DHT22;11516;51.612;7.510;2022-10-20T09:54:49;14.10;99.90
22698;DHT22;11516;51.612;7.510;2022-10-20T10:00:32;14.30;99.90
22698;DHT22;11516;51.612;7.510;2022-10-20T10:03:18;14.10;99.90
22698;DHT22;11516;51.612;7.510;2022-10-20T10:05:58;14.10;99.90
22698;DHT22;11516;51.612;7.510;2022-10-20T10:08:27;14.30;99.90
22698;DHT22;11516;51.612;7.510;2022-10-20T10:17:55;14.70;99.90
22698;DHT22;11516;51.612;7.510;2022-10-20T10:20:32;14.80;99.90
22698;DHT22;11516;51.612;7.510;2022-10-20T10:23:20;14.80;99.90
22698;DHT22;11516;51.612;7.510;2022-10-20T10:29:37;15.00;99.90
22698;DHT22;11516;51.612;7.510;2022-10-20T10:32:26;15.10;99.90
22698;DHT22;11516;51.612;7.510;2022-10-20T10:35:07;15.20;99.90
22698;DHT22;11516;51.612;7.510;2022-10-20T10:38:16;15.10;99.90
22698;DHT22;11516;51.612;7.510;2022-10-20T10:41:16;15.20;99.90
22698;DHT22;11516;51.612;7.510;2022-10-20T10:52:46;15.60;99.90
22698;DHT22;11516;51.612;7.510;2022-10-20T10:55:27;15.60;99.90
22698;DHT22;11516;51.612;7.510;2022-10-20T10:58:09;15.60;99.90
22698;DHT22;11516;51.612;7.510;2022-10-20T11:03:47;15.50;99.90
22698;DHT22;11516;51.612;7.510;2022-10-20T11:06:38;15.50;99.90
22698;DHT22;11516;51.612;7.510;2022-10-20T11:10:38;15.50;99.90
22698;DHT22;11516;51.612;7.510;2022-10-20T11:12:50;15.50;99.90
22698;DHT22;11516;51.612;7.510;2022-10-20T11:21:02;15.80;99.90
22698;DHT22;11516;51.612;7.510;2022-10-20T11:26:42;16.30;99.90
22698;DHT22;11516;51.612;7.510;2022-10-20T11:48:37;16.40;99.90
22698;DHT22;11516;51.612;7.510;2022-10-20T11:54:08;16.10;99.90
22698;DHT22;11516;51.612;7.510;2022-10-20T12:08:20;15.40;99.90
22698;DHT22;11516;51.612;7.510;2022-10-20T12:16:08;15.30;99.90
22698;DHT22;11516;51.612;7.510;2022-10-20T12:18:34;15.30;99.90
22698;DHT22;11516;51.612;7.510;2022-10-20T12:21:05;15.40;99.90
22698;DHT22;11516;51.612;7.510;2022-10-20T12:29:01;15.40;99.90
22698;DHT22;11516;51.612;7.510;2022-10-20T12:34:38;15.40;99.90
22698;DHT22;11516;51.612;7.510;2022-10-20T12:39:50;15.40;99.90
22698;DHT22;11516;51.612;7.510;2022-10-20T12:44:50;15.40;99.90
22698;DHT22;11516;51.612;7.510;2022-10-20T12:47:23;15.50;99.90
22698;DHT22;11516;51.612;7.510;2022-10-20T12:52:50;15.50;99.90
22698;DHT22;11516;51.612;7.510;2022-10-20T13:05:57;15.40;99.90
22698;DHT22;11516;51.612;7.510;2022-10-20T13:08:28;15.40;99.90
22698;DHT22;11516;51.612;7.510;2022-10-20T13:16:38;15.30;99.90
22698;DHT22;11516;51.612;7.510;2022-10-20T13:19:14;15.30;99.90
22698;DHT22;11516;51.612;7.510;2022-10-20T13:21:42;15.20;99.90
22698;DHT22;11516;51.612;7.510;2022-10-20T13:24:26;15.10;99.90
22698;DHT22;11516;51.612;7.510;2022-10-20T13:26:56;15.00;99.90
22698;DHT22;11516;51.612;7.510;2022-10-20T13:29:35;14.90;99.90
22698;DHT22;11516;51.612;7.510;2022-10-20T13:32:36;14.90;99.90
22698;DHT22;11516;51.612;7.510;2022-10-20T13:35:26;14.80;99.90
22698;DHT22;11516;51.612;7.510;2022-10-20T14:04:34;14.70;99.90
22698;DHT22;11516;51.612;7.510;2022-10-20T14:07:05;15.00;99.90
22698;DHT22;11516;51.612;7.510;2022-10-20T14:09:33;14.80;99.90
22698;DHT22;11516;51.612;7.510;2022-10-20T14:12:11;14.80;99.90
22698;DHT22;11516;51.612;7.510;2022-10-20T14:14:42;14.90;99.90
22698;DHT22;11516;51.612;7.510;2022-10-20T14:17:17;14.90;99.90
22698;DHT22;11516;51.612;7.510;2022-10-20T14:19:43;15.00;99.90
22698;DHT22;11516;51.612;7.510;2022-10-20T14:22:18;15.00;99.90
22698;DHT22;11516;51.612;7.510;2022-10-20T14:24:48;15.20;99.90
22698;DHT22;11516;51.612;7.510;2022-10-20T14:27:21;15.30;99.90
22698;DHT22;11516;51.612;7.510;2022-10-20T14:29:47;15.40;99.90
22698;DHT22;11516;51.612;7.510;2022-10-20T14:32:19;15.40;99.90
22698;DHT22;11516;51.612;7.510;2022-10-20T14:35:15;15.40;99.90
22698;DHT22;11516;51.612;7.510;2022-10-20T14:38:02;15.50;99.90
22698;DHT22;11516;51.612;7.510;2022-10-20T14:40:33;15.50;99.90
22698;DHT22;11516;51.612;7.510;2022-10-20T14:43:21;15.50;99.90
22698;DHT22;11516;51.612;7.510;2022-10-20T14:45:53;15.50;99.90
22698;DHT22;11516;51.612;7.510;2022-10-20T14:48:20;15.50;99.90
22698;DHT22;11516;51.612;7.510;2022-10-20T14:50:45;15.60;99.90
22698;DHT22;11516;51.612;7.510;2022-10-20T14:55:40;16.10;99.90
22698;DHT22;11516;51.612;7.510;2022-10-20T14:58:29;16.30;99.90
22698;DHT22;11516;51.612;7.510;2022-10-20T15:01:18;16.60;99.90
22698;DHT22;11516;51.612;7.510;2022-10-20T15:03:44;16.80;99.90
22698;DHT22;11516;51.612;7.510;2022-10-20T15:06:13;17.00;99.90
22698;DHT22;11516;51.612;7.510;2022-10-20T15:08:51;17.10;99.90
22698;DHT22;11516;51.612;7.510;2022-10-20T15:11:20;17.20;99.90
22698;DHT22;11516;51.612;7.510;2022-10-20T15:13:52;17.20;99.90
22698;DHT22;11516;51.612;7.510;2022-10-20T15:16:44;17.00;99.90
22698;DHT22;11516;51.612;7.510;2022-10-20T15:21:49;16.90;99.90
22698;DHT22;11516;51.612;7.510;2022-10-20T15:24:17;17.00;99.90
22698;DHT22;11516;51.612;7.510;2022-10-20T15:26:42;17.00;99.90
22698;DHT22;11516;51.612;7.510;2022-10-20T15:29:08;16.90;99.90
22698;DHT22;11516;51.612;7.510;2022-10-20T15:31:34;16.80;99.90
22698;DHT22;11516;51.612;7.510;2022-10-20T15:34:00;16.70;99.90
22698;DHT22;11516;51.612;7.510;2022-10-20T15:36:27;16.60;99.90
22698;DHT22;11516;51.612;7.510;2022-10-20T15:38:56;16.30;99.90
22698;DHT22;11516;51.612;7.510;2022-10-20T15:41:27;16.30;99.90
22698;DHT22;11516;51.612;7.510;2022-10-20T15:43:53;16.10;99.90
22698;DHT22;11516;51.612;7.510;2022-10-20T15:46:19;16.00;99.90
22698;DHT22;11516;51.612;7.510;2022-10-20T15:48:45;15.80;99.90
22698;DHT22;11516;51.612;7.510;2022-10-20T15:51:16;15.80;99.90
22698;DHT22;11516;51.612;7.510;2022-10-20T15:53:43;15.70;99.90
22698;DHT22;11516;51.612;7.510;2022-10-20T15:56:11;15.60;99.90
22698;DHT22;11516;51.612;7.510;2022-10-20T15:58:36;15.50;99.90
22698;DHT22;11516;51.612;7.510;2022-10-20T16:01:02;15.50;99.90
22698;DHT22;11516;51.612;7.510;2022-10-20T16:03:27;15.40;99.90
22698;DHT22;11516;51.612;7.510;2022-10-20T16:05:53;15.40;99.90
22698;DHT22;11516;51.612;7.510;2022-10-20T16:08:18;15.30;99.90
22698;DHT22;11516;51.612;7.510;2022-10-20T16:10:44;15.30;99.90
22698;DHT22;11516;51.612;7.510;2022-10-20T16:13:10;15.30;99.90
22698;DHT22;11516;51.612;7.510;2022-10-20T16:15:36;15.30;99.90
22698;DHT22;11516;51.612;7.510;2022-10-20T16:18:01;15.20;99.90
22698;DHT22;11516;51.612;7.510;2022-10-20T16:20:27;15.30;99.90
22698;DHT22;11516;51.612;7.510;2022-10-20T16:22:53;15.20;99.90
22698;DHT22;11516;51.612;7.510;2022-10-20T16:25:18;15.20;99.90
22698;DHT22;11516;51.612;7.510;2022-10-20T16:27:44;15.20;99.90
22698;DHT22;11516;51.612;7.510;2022-10-20T16:30:10;15.10;99.90
22698;DHT22;11516;51.612;7.510;2022-10-20T16:32:36;15.10;99.90
22698;DHT22;11516;51.612;7.510;2022-10-20T16:35:03;15.00;99.90
22698;DHT22;11516;51.612;7.510;2022-10-20T16:37:30;14.90;99.90
22698;DHT22;11516;51.612;7.510;2022-10-20T16:39:57;14.90;99.90
22698;DHT22;11516;51.612;7.510;2022-10-20T16:42:22;14.90;99.90
22698;DHT22;11516;51.612;7.510;2022-10-20T16:44:48;14.90;99.90
22698;DHT22;11516;51.612;7.510;2022-10-20T16:47:13;14.80;99.90
22698;DHT22;11516;51.612;7.510;2022-10-20T16:49:39;14.90;99.90
22698;DHT22;11516;51.612;7.510;2022-10-20T16:52:04;14.90;99.90
22698;DHT22;11516;51.612;7.510;2022-10-20T16:54:30;14.90;99.90
22698;DHT22;11516;51.612;7.510;2022-10-20T16:56:55;14.80;99.90
22698;DHT22;11516;51.612;7.510;2022-10-20T16:59:21;14.70;99.90
22698;DHT22;11516;51.612;7.510;2022-10-20T17:01:46;14.70;99.90
22698;DHT22;11516;51.612;7.510;2022-10-20T17:04:12;14.70;99.90
22698;DHT22;11516;51.612;7.510;2022-10-20T17:06:37;14.60;99.90
22698;DHT22;11516;51.612;7.510;2022-10-20T17:09:03;14.50;99.90
22698;DHT22;11516;51.612;7.510;2022-10-20T17:11:30;14.50;99.90
22698;DHT22;11516;51.612;7.510;2022-10-20T17:13:57;14.40;99.90
22698;DHT22;11516;51.612;7.510;2022-10-20T17:16:25;14.40;99.90
22698;DHT22;11516;51.612;7.510;2022-10-20T17:18:57;14.40;99.90
22698;DHT22;11516;51.612;7.510;2022-10-20T17:21:23;14.30;99.90
22698;DHT22;11516;51.612;7.510;2022-10-20T17:23:49;14.30;99.90
22698;DHT22;11516;51.612;7.510;2022-10-20T17:26:18;14.30;99.90
22698;DHT22;11516;51.612;7.510;2022-10-20T17:28:44;14.20;99.90
22698;DHT22;11516;51.612;7.510;2022-10-20T17:31:11;14.30;99.90
22698;DHT22;11516;51.612;7.510;2022-10-20T17:33:38;14.50;99.90
22698;DHT22;11516;51.612;7.510;2022-10-20T17:36:04;14.50;99.90
22698;DHT22;11516;51.612;7.510;2022-10-20T17:38:30;14.50;99.90
22698;DHT22;11516;51.612;7.510;2022-10-20T17:41:02;14.40;99.90
22698;DHT22;11516;51.612;7.510;2022-10-20T17:43:28;14.40;99.90
22698;DHT22;11516;51.612;7.510;2022-10-20T17:45:56;14.40;99.90
22698;DHT22;11516;51.612;7.510;2022-10-20T17:48:22;14.30;99.90
22698;DHT22;11516;51.612;7.510;2022-10-20T17:51:04;14.30;99.90
22698;DHT22;11516;51.612;7.510;2022-10-20T17:53:34;14.30;99.90
22698;DHT22;11516;51.612;7.510;2022-10-20T17:56:03;14.40;99.90
22698;DHT22;11516;51.612;7.510;2022-10-20T17:58:29;14.40;99.90
22698;DHT22;11516;51.612;7.510;2022-10-20T18:01:09;14.30;99.90
22698;DHT22;11516;51.612;7.510;2022-10-20T18:03:34;14.30;99.90
22698;DHT22;11516;51.612;7.510;2022-10-20T18:06:14;14.30;99.90
22698;DHT22;11516;51.612;7.510;2022-10-20T18:08:41;14.20;99.90
22698;DHT22;11516;51.612;7.510;2022-10-20T18:11:09;14.20;99.90
22698;DHT22;11516;51.612;7.510;2022-10-20T18:13:35;14.10;99.90
22698;DHT22;11516;51.612;7.510;2022-10-20T18:16:10;14.20;99.90
22698;DHT22;11516;51.612;7.510;2022-10-20T18:18:36;14.30;99.90
22698;DHT22;11516;51.612;7.510;2022-10-20T18:21:03;14.40;99.90
22698;DHT22;11516;51.612;7.510;2022-10-20T18:23:29;14.40;99.90
22698;DHT22;11516;51.612;7.510;2022-10-20T18:25:58;14.30;99.90
22698;DHT22;11516;51.612;7.510;2022-10-20T18:28:27;14.30;99.90
22698;DHT22;11516;51.612;7.510;2022-10-20T18:30:52;14.40;99.90
22698;DHT22;11516;51.612;7.510;2022-10-20T18:33:18;14.30;99.90
22698;DHT22;11516;51.612;7.510;2022-10-20T18:35:44;14.30;99.90
22698;DHT22;11516;51.612;7.510;2022-10-20T18:38:09;14.30;99.90
22698;DHT22;11516;51.612;7.510;2022-10-20T18:40:34;14.30;99.90
22698;DHT22;11516;51.612;7.510;2022-10-20T18:43:00;14.30;99.90
22698;DHT22;11516;51.612;7.510;2022-10-20T18:45:26;14.30;99.90
22698;DHT22;11516;51.612;7.510;2022-10-20T18:47:52;14.30;99.90
22698;DHT22;11516;51.612;7.510;2022-10-20T18:50:18;14.30;99.90
22698;DHT22;11516;51.612;7.510;2022-10-20T18:52:43;14.20;99.90
22698;DHT22;11516;51.612;7.510;2022-10-20T18:55:09;14.20;99.90
22698;DHT22;11516;51.612;7.510;2022-10-20T18:57:35;14.30;99.90
22698;DHT22;11516;51.612;7.510;2022-10-20T19:00:05;14.30;99.90
22698;DHT22;11516;51.612;7.510;2022-10-20T19:02:30;14.30;99.90
22698;DHT22;11516;51.612;7.510;2022-10-20T19:04:56;14.20;99.90